Nearby METAR Reports

 

KICL - Clarinda, Iowa, USA
Distance from station: N 49mi, 79km
Updated: Tue, 25-Sep-2018 4:15pm CDT
Overcast
Overcast
 Wind from NNW
Wind: NNW 14 mph , 22 km/h, Gust: 20 mph , 31 km/h
Temperature: 61°F , 16°C
Dew Point: 54°F , 12°C
Humidity: 77%
Barometer: 30.04 inHg , 1017.3 hPa
Clouds: Overcast
Visibility: 10 miles , 16 km
Cloud details: Overcast 1900 ft
2018/09/25 21:15 KICL 252115Z AUTO 34012G17KT 10SM OVC019 16/12 A3004 RMK AO2
KDSM - Des Moines, Iowa, USA
Distance from station: NNE 122mi, 196km
Updated: Tue, 25-Sep-2018 4:18pm CDT
Overcast
Overcast
 Wind from NNW
Wind: NNW 12 mph , 19 km/h
Temperature: 55°F , 13°C
Dew Point: 55°F , 13°C
Humidity: 100%
Barometer: 29.97 inHg , 1014.9 hPa
Clouds: Overcast
Visibility: 10 miles , 16 km
Cloud details: Overcast 1000 ft
2018/09/25 21:18 KDSM 252118Z 33010KT 10SM OVC010 13/13 A2997 RMK AO2 DZE08 CIG 007V013 P0000 T01330128
KFNB - Falls City, Nebraska, USA
Distance from station: W 50mi, 80km
Updated: Tue, 25-Sep-2018 4:18pm CDT
Overcast
Overcast
 Wind from NNW
Wind: NNW 10 mph , 17 km/h, Gust: 24 mph , 39 km/h
Temperature: 61°F , 16°C
Dew Point: 55°F , 13°C
Humidity: 83%
Barometer: 30.01 inHg , 1016.3 hPa
Clouds: Overcast
Visibility: 10 miles , 16 km
Cloud details: Few Clouds 2100 ft
Partly cloudy 2800 ft
Overcast 11000 ft
2018/09/25 21:18 KFNB 252118Z AUTO 34009G21KT 10SM FEW021 SCT028 OVC110 16/13 A3001 RMK AO2 T01610128
 
KMCI - Kansas City, Missouri, USA
Distance from station: S 65mi, 104km
Updated: Tue, 25-Sep-2018 3:53pm CDT
Overcast
Overcast
 Wind from NNW
Wind: NNW 15 mph , 24 km/h
Temperature: 68°F , 20°C
Dew Point: 59°F , 15°C
Humidity: 73%
Barometer: 29.96 inHg , 1014.6 hPa
Clouds: Overcast
Visibility: 10 miles , 16 km
Cloud details: Few Clouds 1600 ft
Partly cloudy 2600 ft
Overcast 3200 ft
2018/09/25 20:53 KMCI 252053Z 33013KT 10SM FEW016 SCT026 OVC032 20/15 A2996 RMK AO2 SLP138 T02000150 53014
KOMA - Omaha, Nebraska, USA
Distance from station: NNW 105mi, 169km
Updated: Tue, 25-Sep-2018 3:52pm CDT
Mostly cloudy
Mostly cloudy
 Wind from NNW
Wind: NNW 18 mph , 30 km/h, Gust: 25 mph , 41 km/h
Temperature: 64°F , 18°C
Dew Point: 50°F , 10°C
Humidity: 60%
Barometer: 30.03 inHg , 1016.9 hPa
Clouds: Mostly cloudy
Visibility: 10 miles , 16 km
Cloud details: Partly cloudy 3300 ft
Mostly cloudy 12000 ft
2018/09/25 20:52 KOMA 252052Z 33016G22KT 10SM SCT033 BKN120 18/10 A3003 RMK AO2 SLP166 T01830100 53010
KRDK - Red Oak, Iowa, USA
Distance from station: N 70mi, 112km
Updated: Tue, 25-Sep-2018 4:15pm CDT
Overcast
Overcast
 Wind from NW
Wind: NW 10 mph , 17 km/h, Gust: 17 mph , 28 km/h
Temperature: 61°F , 16°C
Dew Point: 54°F , 12°C
Humidity: 77%
Barometer: 30.03 inHg , 1016.9 hPa
Clouds: Overcast
Visibility: 10 miles , 16 km
Cloud details: Few Clouds 2000 ft
Overcast 3000 ft
2018/09/25 21:15 KRDK 252115Z AUTO 32009G15KT 10SM FEW020 OVC030 16/12 A3003 RMK AO2
 
KSTJ - Saint Joseph, Missouri, USA
Distance from station: SW 23mi, 37km
Updated: Tue, 25-Sep-2018 3:53pm CDT
Overcast
Overcast
 Wind from NNW
Wind: NNW 15 mph , 24 km/h, Gust: 23 mph , 37 km/h
Temperature: 63°F , 17°C
Dew Point: 59°F , 15°C
Humidity: 88%
Barometer: 29.99 inHg , 1015.6 hPa
Clouds: Overcast
Visibility: 10 miles , 16 km
Cloud details: Overcast 1700 ft
2018/09/25 20:53 KSTJ 252053Z AUTO 33013G20KT 10SM OVC017 17/15 A2999 RMK AO2 RAE19 SLP152 P0001 60006 T01720150 53018
KTOP - Topeka, Kansas, USA
Distance from station: SW 85mi, 137km
Updated: Tue, 25-Sep-2018 3:53pm CDT
Overcast
Overcast
 Wind from NNW
Wind: NNW 14 mph , 22 km/h, Gust: 25 mph , 41 km/h
Temperature: 66°F , 19°C
Dew Point: 57°F , 14°C
Humidity: 73%
Barometer: 30.00 inHg , 1015.9 hPa
Clouds: Overcast
Visibility: 10 miles , 16 km
Cloud details: Overcast 2200 ft
2018/09/25 20:53 KTOP 252053Z 33012G22KT 10SM OVC022 19/14 A3000 RMK AO2 RAB09E41 SLP155 P0000 60000 T01890144 53029
KICT - Wichita, Kansas, USA
Distance from station: SW 215mi, 346km
Updated: Tue, 25-Sep-2018 3:53pm CDT
Mostly cloudy
Mostly cloudy
 Wind from N
Wind: N 20 mph , 31 km/h, Gust: 32 mph , 52 km/h
Temperature: 72°F , 22°C
Dew Point: 57°F , 14°C
Humidity: 61%
Barometer: 29.99 inHg , 1015.6 hPa
Clouds: Mostly cloudy
Visibility: 10 miles , 16 km
Cloud details: Mostly cloudy 3800 ft
2018/09/25 20:53 KICT 252053Z 36017G28KT 10SM BKN038 22/14 A2999 RMK AO2 PK WND 35028/2044 SLP148 T02170144 53020